Time;durP1;ratioP1;P1;durP2;ratioP2;P2;SDS_P1;SDS_P2;PMS_P1;PMS_P2;Temp;Humidity;BMP_temperature;BMP_pressure;BME280_temperature;BME280_humidity;BME280_pressure;Samples;Min_cycle;Max_cycle;Signal;HPM_P1;HPM_P2
2023/06/13 00:02:22;;;;;;;13.43;3.30;;;13.00;1.00;;;;;;5072111;28;20021;-54
2023/06/13 00:04:51;;;;;;;9.88;3.70;;;13.00;1.00;;;;;;5073540;28;20071;-52
2023/06/13 00:07:17;;;;;;;4.25;3.60;;;13.00;25.40;;;;;;5073578;28;20046;-53
2023/06/13 00:09:43;;;;;;;6.95;3.60;;;13.00;76.20;;;;;;5073474;28;20383;-54
2023/06/13 00:12:09;;;;;;;6.60;3.55;;;12.90;95.20;;;;;;5073285;28;20028;-54
2023/06/13 00:14:35;;;;;;;8.82;3.40;;;12.80;99.40;;;;;;5073298;28;20032;-54
2023/06/13 00:17:02;;;;;;;5.20;3.78;;;12.80;99.90;;;;;;5072677;28;20359;-55
2023/06/13 00:19:28;;;;;;;6.68;3.50;;;12.80;49.40;;;;;;5072881;28;20405;-54
2023/06/13 00:21:56;;;;;;;7.63;3.53;;;12.80;15.10;;;;;;5073073;28;20430;-56
2023/06/13 00:24:22;;;;;;;6.88;3.15;;;12.80;7.00;;;;;;5072919;28;20047;-53
2023/06/13 00:26:48;;;;;;;7.97;3.65;;;12.90;1.00;;;;;;5072815;28;20414;-53
2023/06/13 00:29:13;;;;;;;12.25;3.75;;;12.80;1.00;;;;;;5072910;28;20028;-54
2023/06/13 00:31:40;;;;;;;6.35;3.65;;;12.80;1.00;;;;;;5071495;28;20472;-52
2023/06/13 00:34:06;;;;;;;6.20;3.53;;;12.80;1.00;;;;;;5072305;28;20024;-52
2023/06/13 00:36:37;;;;;;;8.80;3.22;;;12.80;1.00;;;;;;5072822;28;20040;-51
2023/06/13 00:39:03;;;;;;;8.98;3.08;;;12.70;1.00;;;;;;5071083;28;20033;-53
2023/06/13 00:41:32;;;;;;;6.35;4.30;;;12.80;1.00;;;;;;5072901;28;20024;-55
2023/06/13 00:43:58;;;;;;;7.03;4.10;;;12.80;1.00;;;;;;5072662;28;20024;-56
2023/06/13 00:46:32;;;;;;;9.35;3.80;;;12.80;1.00;;;;;;5072608;28;20023;-54
2023/06/13 00:48:58;;;;;;;23.55;3.30;;;12.70;1.00;;;;;;5072738;28;20033;-54
2023/06/13 00:51:27;;;;;;;3.72;3.30;;;12.60;1.00;;;;;;5072571;28;20024;-52
2023/06/13 00:53:55;;;;;;;8.00;3.47;;;12.60;1.00;;;;;;5072648;28;20055;-51
2023/06/13 00:56:22;;;;;;;7.75;3.85;;;12.60;1.00;;;;;;5072428;28;20035;-52
2023/06/13 00:58:48;;;;;;;4.20;3.35;;;12.60;35.00;;;;;;5072177;28;20403;-53
2023/06/13 01:01:19;;;;;;;13.35;3.80;;;12.50;99.90;;;;;;5072368;28;20079;-52
2023/06/13 01:03:45;;;;;;;9.02;4.00;;;12.40;99.90;;;;;;5071666;28;20027;-52
2023/06/13 01:06:14;;;;;;;9.23;3.97;;;12.40;99.90;;;;;;5072123;28;20087;-52
2023/06/13 01:08:40;;;;;;;9.40;3.65;;;12.30;99.90;;;;;;5072379;28;20533;-53
2023/06/13 01:11:18;;;;;;;10.48;3.90;;;12.30;1.00;;;;;;5071938;28;20028;-53
2023/06/13 01:14:03;;;;;;;6.63;3.90;;;12.30;1.00;;;;;;5072238;28;20082;-54
2023/06/13 01:16:47;;;;;;;10.10;3.75;;;12.20;42.10;;;;;;5071862;28;20364;-52
2023/06/13 01:19:23;;;;;;;;;;;12.20;99.90;;;;;;5070651;28;20434;-55
2023/06/13 01:21:52;;;;;;;3.78;3.20;;;12.10;99.90;;;;;;5071524;28;19905;-52
2023/06/13 01:24:34;;;;;;;8.95;3.72;;;12.10;99.90;;;;;;5071824;28;20027;-54
2023/06/13 01:27:01;;;;;;;5.78;3.97;;;12.00;99.90;;;;;;5071555;28;20078;-54
2023/06/13 01:29:28;;;;;;;7.28;4.45;;;12.00;99.90;;;;;;5071846;28;20055;-52
2023/06/13 01:31:56;;;;;;;5.28;3.72;;;12.00;99.90;;;;;;5071924;28;20598;-52
2023/06/13 01:34:24;;;;;;;7.03;3.85;;;12.00;99.90;;;;;;5071707;28;20034;-54
2023/06/13 01:36:50;;;;;;;4.70;3.42;;;12.00;99.90;;;;;;5071725;28;20028;-54
2023/06/13 01:39:16;;;;;;;8.15;3.70;;;12.00;99.90;;;;;;5071733;28;20464;-53
2023/06/13 01:41:41;;;;;;;7.18;3.90;;;12.00;99.90;;;;;;5071807;28;20035;-54
2023/06/13 01:44:10;;;;;;;12.40;3.83;;;12.00;99.90;;;;;;5071757;28;20093;-53
2023/06/13 01:46:51;;;;;;;9.88;3.95;;;12.00;99.90;;;;;;5071814;28;20012;-52
2023/06/13 01:49:42;;;;;;;5.22;3.72;;;12.00;99.90;;;;;;5071434;28;20032;-51
2023/06/13 01:52:15;;;;;;;12.15;4.43;;;12.00;99.90;;;;;;5070933;28;20043;-52
2023/06/13 01:54:48;;;;;;;6.07;3.72;;;12.00;1.00;;;;;;5071638;28;20025;-56
2023/06/13 01:57:19;;;;;;;7.10;4.28;;;11.90;17.80;;;;;;5071252;28;20102;-51
2023/06/13 01:59:51;;;;;;;4.03;3.47;;;11.80;99.90;;;;;;5071559;28;20029;-51
2023/06/13 02:02:17;;;;;;;9.30;4.32;;;11.80;99.90;;;;;;5071506;28;20070;-52
2023/06/13 02:04:43;;;;;;;6.68;4.10;;;11.70;1.00;;;;;;5071478;28;20016;-54
2023/06/13 02:07:10;;;;;;;6.47;4.43;;;11.60;99.90;;;;;;5071410;28;20025;-53
2023/06/13 02:09:36;;;;;;;16.67;4.57;;;11.50;76.50;;;;;;5071207;28;20070;-53
2023/06/13 02:12:02;;;;;;;16.75;4.53;;;11.40;1.00;;;;;;5071349;28;20459;-52
2023/06/13 02:14:32;;;;;;;5.90;4.10;;;11.40;99.90;;;;;;5073656;28;20032;-55
2023/06/13 02:16:59;;;;;;;7.53;4.03;;;11.40;1.00;;;;;;5075370;28;20020;-55
2023/06/13 02:19:25;;;;;;;7.50;4.55;;;11.30;1.00;;;;;;5075312;28;20025;-54
2023/06/13 02:21:52;;;;;;;6.57;4.32;;;11.30;1.00;;;;;;5075270;28;20060;-54
2023/06/13 02:24:18;;;;;;;9.32;4.40;;;11.40;99.90;;;;;;5075080;28;20020;-52
2023/06/13 02:26:44;;;;;;;10.18;4.93;;;11.30;1.00;;;;;;5074837;28;20016;-53
2023/06/13 02:29:10;;;;;;;6.53;4.35;;;11.20;96.10;;;;;;5073518;28;20029;-52
2023/06/13 02:31:38;;;;;;;12.57;4.72;;;11.20;99.90;;;;;;5075279;28;20028;-52
2023/06/13 02:34:06;;;;;;;11.05;5.45;;;11.20;99.90;;;;;;5075077;28;20025;-52
2023/06/13 02:36:32;;;;;;;16.40;5.07;;;11.20;99.90;;;;;;5074969;28;20048;-54
2023/06/13 02:39:02;;;;;;;8.98;5.28;;;11.20;99.90;;;;;;5075188;28;20514;-55
2023/06/13 02:41:28;;;;;;;8.52;4.88;;;11.20;99.90;;;;;;5074627;28;20032;-53
2023/06/13 02:43:54;;;;;;;12.65;5.47;;;11.10;1.00;;;;;;5074312;28;20024;-55
2023/06/13 02:46:19;;;;;;;8.35;5.45;;;11.10;1.00;;;;;;5073988;28;20141;-52
2023/06/13 02:48:45;;;;;;;21.90;5.20;;;11.10;1.00;;;;;;5074477;28;20028;-55
2023/06/13 02:51:11;;;;;;;12.63;5.28;;;11.10;1.00;;;;;;5073910;28;20472;-55
2023/06/13 02:53:37;;;;;;;12.75;4.90;;;11.00;1.00;;;;;;5073869;28;20422;-55
2023/06/13 02:56:03;;;;;;;11.10;4.82;;;11.00;75.80;;;;;;5074149;28;20033;-52
2023/06/13 02:58:28;;;;;;;7.13;4.93;;;10.90;99.90;;;;;;5074499;28;20415;-52
2023/06/13 03:00:54;;;;;;;10.60;4.70;;;10.90;99.90;;;;;;5073548;28;20021;-53
2023/06/13 03:03:23;;;;;;;10.52;5.18;;;10.90;99.90;;;;;;5074553;28;20052;-52
2023/06/13 03:05:56;;;;;;;12.93;5.85;;;10.90;99.90;;;;;;5074567;28;20024;-52
2023/06/13 03:08:22;;;;;;;7.25;5.03;;;10.80;99.90;;;;;;5074599;28;20029;-51
2023/06/13 03:10:49;;;;;;;9.63;5.15;;;10.80;99.90;;;;;;5074691;28;20082;-54
2023/06/13 03:13:16;;;;;;;9.98;5.63;;;10.80;99.90;;;;;;5074317;28;20028;-53
2023/06/13 03:15:45;;;;;;;7.50;5.40;;;10.80;99.90;;;;;;5074513;28;20070;-55
2023/06/13 03:18:11;;;;;;;6.88;5.13;;;10.80;45.20;;;;;;5074357;28;20021;-54
2023/06/13 03:20:37;;;;;;;5.65;4.85;;;10.80;1.00;;;;;;5074381;28;20388;-53
2023/06/13 03:23:03;;;;;;;7.55;5.00;;;10.80;1.00;;;;;;5074197;28;20031;-54
2023/06/13 03:25:29;;;;;;;9.25;4.80;;;10.80;1.00;;;;;;5073682;28;20032;-52
2023/06/13 03:27:55;;;;;;;9.25;4.72;;;10.90;1.00;;;;;;5074227;28;20451;-51
2023/06/13 03:30:21;;;;;;;6.97;5.03;;;10.90;1.00;;;;;;5074152;28;20021;-54
2023/06/13 03:32:46;;;;;;;7.47;5.50;;;10.90;99.90;;;;;;5074117;28;20032;-54
2023/06/13 03:35:12;;;;;;;9.38;4.70;;;10.90;99.90;;;;;;5073999;28;20125;-53
2023/06/13 03:37:38;;;;;;;8.25;4.50;;;11.00;99.90;;;;;;5074077;28;20102;-51
2023/06/13 03:40:04;;;;;;;6.38;5.25;;;11.00;1.00;;;;;;5073879;28;20024;-56
2023/06/13 03:42:30;;;;;;;9.65;5.45;;;11.00;1.00;;;;;;5073892;28;20031;-55
2023/06/13 03:44:55;;;;;;;9.40;4.60;;;11.10;1.00;;;;;;5074101;28;20020;-55
2023/06/13 03:47:21;;;;;;;9.32;5.28;;;11.10;99.90;;;;;;5073628;28;20016;-55
2023/06/13 03:49:47;;;;;;;10.07;4.38;;;11.00;1.00;;;;;;5073865;28;20025;-52
2023/06/13 03:52:12;;;;;;;12.15;5.40;;;11.00;1.00;;;;;;5073728;28;20384;-51
2023/06/13 03:54:38;;;;;;;10.65;4.15;;;11.10;99.90;;;;;;5073817;28;20452;-50
2023/06/13 03:57:04;;;;;;;14.68;4.95;;;11.20;99.90;;;;;;5072140;28;20102;-55
2023/06/13 03:59:30;;;;;;;9.10;4.80;;;11.20;1.00;;;;;;5073651;28;20064;-54
2023/06/13 04:01:55;;;;;;;15.75;4.75;;;11.20;1.00;;;;;;5073676;28;20013;-54
2023/06/13 04:04:21;;;;;;;5.20;4.00;;;11.30;1.00;;;;;;5073513;28;20475;-55
2023/06/13 04:06:49;;;;;;;16.00;7.13;;;11.30;60.70;;;;;;5073620;28;20037;-55
2023/06/13 04:09:15;;;;;;;8.70;5.53;;;11.40;99.90;;;;;;5073462;28;20532;-53
2023/06/13 04:11:40;;;;;;;9.52;6.15;;;11.40;1.00;;;;;;5073436;28;20394;-52
2023/06/13 04:14:06;;;;;;;8.52;4.32;;;11.40;1.00;;;;;;5073303;28;20081;-53
2023/06/13 04:16:31;;;;;;;9.57;4.72;;;11.50;1.00;;;;;;5073190;28;20059;-53
2023/06/13 04:19:01;;;;;;;10.95;5.95;;;11.50;1.00;;;;;;5073331;28;20039;-54
2023/06/13 04:21:27;;;;;;;8.82;5.50;;;11.60;1.00;;;;;;5073347;28;20498;-54
2023/06/13 04:23:53;;;;;;;10.68;6.57;;;11.60;95.10;;;;;;5073067;28;20033;-54
2023/06/13 04:26:20;;;;;;;7.45;6.05;;;11.60;1.00;;;;;;5072986;28;20029;-53
2023/06/13 04:28:47;;;;;;;10.48;5.13;;;11.60;1.00;;;;;;5073314;28;20035;-54
2023/06/13 04:31:14;;;;;;;8.55;4.40;;;11.70;99.90;;;;;;5072814;28;20105;-52
2023/06/13 04:33:41;;;;;;;8.55;5.40;;;11.70;99.90;;;;;;5073021;28;20021;-53
2023/06/13 04:36:08;;;;;;;6.35;4.95;;;11.80;99.90;;;;;;5072834;28;20029;-51
2023/06/13 04:38:37;;;;;;;8.15;4.63;;;11.80;3.50;;;;;;5071716;28;20031;-52
2023/06/13 04:41:03;;;;;;;7.53;4.90;;;11.90;99.90;;;;;;5072639;28;20024;-54
2023/06/13 04:43:29;;;;;;;7.25;4.97;;;11.90;1.00;;;;;;5071492;28;20700;-52
2023/06/13 04:45:56;;;;;;;11.40;4.70;;;12.00;1.00;;;;;;5072552;28;20056;-53
2023/06/13 04:48:25;;;;;;;7.10;4.57;;;12.10;1.00;;;;;;5072514;28;20059;-53
2023/06/13 04:50:52;;;;;;;17.88;4.32;;;12.10;99.90;;;;;;5071475;28;20479;-54
2023/06/13 04:53:21;;;;;;;14.45;4.68;;;12.20;99.90;;;;;;5071148;28;20365;-52
2023/06/13 04:55:48;;;;;;;5.97;4.20;;;12.30;99.90;;;;;;5072453;28;20033;-54
2023/06/13 04:58:14;;;;;;;8.25;4.78;;;12.40;85.10;;;;;;5072049;28;20380;-55
2023/06/13 05:00:40;;;;;;;5.80;4.30;;;12.40;99.90;;;;;;5072608;28;20029;-54
2023/06/13 05:03:06;;;;;;;7.97;4.82;;;12.50;1.00;;;;;;5072380;28;20481;-52
2023/06/13 05:05:32;;;;;;;5.82;4.32;;;12.60;99.90;;;;;;5072450;28;20360;-52
2023/06/13 05:07:59;;;;;;;12.05;4.38;;;12.70;99.90;;;;;;5072312;28;20037;-54
2023/06/13 05:10:26;;;;;;;8.75;4.57;;;12.80;6.00;;;;;;5072298;28;20024;-52
2023/06/13 05:12:53;;;;;;;6.45;4.57;;;12.80;1.00;;;;;;5071958;28;20085;-56
2023/06/13 05:15:20;;;;;;;6.47;3.90;;;12.90;99.90;;;;;;5071984;28;20463;-55
2023/06/13 05:17:46;;;;;;;10.57;4.22;;;13.00;1.00;;;;;;5072109;28;20021;-53
2023/06/13 05:20:12;;;;;;;14.63;3.88;;;13.20;99.90;;;;;;5072065;28;20508;-51
2023/06/13 05:22:39;;;;;;;11.95;4.97;;;13.20;95.60;;;;;;5071990;28;20678;-54
2023/06/13 05:25:08;;;;;;;6.00;4.13;;;13.20;99.90;;;;;;5071883;28;20028;-55
2023/06/13 05:27:34;;;;;;;4.88;3.72;;;13.30;1.00;;;;;;5071838;28;20062;-52
2023/06/13 05:30:00;;;;;;;8.68;3.50;;;13.30;1.00;;;;;;5071708;28;20016;-53
2023/06/13 05:32:26;;;;;;;10.63;4.30;;;13.40;99.90;;;;;;5071304;28;20111;-53
2023/06/13 05:34:51;;;;;;;16.27;3.78;;;13.50;99.90;;;;;;5071856;28;20040;-55
2023/06/13 05:37:17;;;;;;;8.00;3.70;;;13.50;99.90;;;;;;5071715;28;20032;-56
2023/06/13 05:39:43;;;;;;;12.00;5.07;;;13.70;99.90;;;;;;5071836;28;20081;-55
2023/06/13 05:42:10;;;;;;;12.43;3.80;;;13.60;99.90;;;;;;5071530;28;20036;-54
2023/06/13 05:44:36;;;;;;;4.78;3.58;;;13.70;98.70;;;;;;5071834;28;20565;-53
2023/06/13 05:47:02;;;;;;;6.82;4.93;;;13.70;44.10;;;;;;5071800;28;20123;-53
2023/06/13 05:49:28;;;;;;;12.60;3.88;;;13.70;1.00;;;;;;5071354;28;20032;-62
2023/06/13 05:51:53;;;;;;;9.38;3.83;;;13.70;1.00;;;;;;5071557;28;20033;-53
2023/06/13 05:54:19;;;;;;;3.72;3.35;;;13.90;19.40;;;;;;5071323;28;20036;-55
2023/06/13 05:56:45;;;;;;;4.80;4.00;;;13.90;1.00;;;;;;5071209;28;20036;-55
2023/06/13 05:59:14;;;;;;;5.78;3.83;;;13.90;1.00;;;;;;5071297;28;20052;-53
2023/06/13 06:01:42;;;;;;;5.85;3.65;;;14.00;1.00;;;;;;5071475;28;20023;-55
2023/06/13 06:04:07;;;;;;;4.05;3.58;;;14.00;1.00;;;;;;5071568;28;20083;-52
2023/06/13 06:06:34;;;;;;;9.85;3.58;;;14.10;1.00;;;;;;5071477;28;20460;-53
2023/06/13 06:09:00;;;;;;;8.57;3.72;;;14.20;1.00;;;;;;5071458;28;20421;-52
2023/06/13 06:11:26;;;;;;;10.98;4.38;;;14.20;1.00;;;;;;5070096;28;20116;-53
2023/06/13 06:13:52;;;;;;;11.57;3.78;;;14.20;1.00;;;;;;5071525;28;20032;-53
2023/06/13 06:16:17;;;;;;;7.88;3.83;;;14.30;1.00;;;;;;5071204;28;20082;-53
2023/06/13 06:18:43;;;;;;;10.02;3.97;;;14.30;1.00;;;;;;5070106;28;20021;-52
2023/06/13 06:21:09;;;;;;;6.75;3.97;;;14.30;99.90;;;;;;5071292;28;20025;-53
2023/06/13 06:23:36;;;;;;;12.30;4.13;;;14.50;1.00;;;;;;5070057;28;20051;-55
2023/06/13 06:26:02;;;;;;;5.15;3.95;;;14.50;99.90;;;;;;5071265;28;20023;-53
2023/06/13 06:28:27;;;;;;;15.95;3.88;;;14.60;1.00;;;;;;5071393;28;20119;-54
2023/06/13 06:30:53;;;;;;;8.88;3.97;;;14.70;99.90;;;;;;5071194;28;20029;-53
2023/06/13 06:33:20;;;;;;;6.85;4.07;;;14.80;99.90;;;;;;5071145;28;20048;-53
2023/06/13 06:35:45;;;;;;;7.43;3.60;;;14.80;99.90;;;;;;5071193;28;20021;-54
2023/06/13 06:38:11;;;;;;;7.65;4.30;;;14.90;1.00;;;;;;5069576;28;20503;-55
2023/06/13 06:40:36;;;;;;;13.20;4.00;;;14.90;99.90;;;;;;5069910;28;20032;-55
2023/06/13 06:43:02;;;;;;;12.10;3.70;;;15.00;99.90;;;;;;5070959;28;20032;-54
2023/06/13 06:45:28;;;;;;;6.95;3.83;;;15.00;99.90;;;;;;5071194;28;20020;-53
2023/06/13 06:47:53;;;;;;;8.88;3.70;;;15.00;99.90;;;;;;5071144;28;20021;-56
2023/06/13 06:50:19;;;;;;;11.23;3.75;;;15.00;99.90;;;;;;5069852;28;20101;-54
2023/06/13 06:52:45;;;;;;;5.40;4.00;;;15.00;99.90;;;;;;5070922;28;20060;-52
2023/06/13 06:55:11;;;;;;;4.47;3.47;;;15.20;99.90;;;;;;5071000;28;20024;-55
2023/06/13 06:57:37;;;;;;;9.38;3.83;;;15.40;99.90;;;;;;5070581;28;20044;-53
2023/06/13 07:00:04;;;;;;;6.63;3.53;;;15.40;99.90;;;;;;5071013;28;20025;-52
2023/06/13 07:02:30;;;;;;;10.90;4.00;;;15.50;99.90;;;;;;5074042;28;20021;-52
2023/06/13 07:04:55;;;;;;;8.60;3.45;;;15.60;99.90;;;;;;5074587;28;20066;-53
2023/06/13 07:07:21;;;;;;;6.78;4.05;;;15.80;99.90;;;;;;5074383;28;20060;-54
2023/06/13 07:09:47;;;;;;;7.20;4.30;;;16.00;99.90;;;;;;5074561;28;20059;-52
2023/06/13 07:12:12;;;;;;;8.10;3.75;;;16.00;99.90;;;;;;5074436;28;20099;-53
2023/06/13 07:14:38;;;;;;;8.75;3.60;;;16.10;99.90;;;;;;5074527;28;20070;-52
2023/06/13 07:17:04;;;;;;;7.20;3.97;;;16.30;99.90;;;;;;5072941;28;20248;-53
2023/06/13 07:19:30;;;;;;;8.40;3.70;;;16.20;91.40;;;;;;5074205;28;20464;-54
2023/06/13 07:21:55;;;;;;;6.20;3.33;;;16.30;76.00;;;;;;5074477;28;20031;-53
2023/06/13 07:24:21;;;;;;;16.67;3.70;;;16.30;99.90;;;;;;5074166;28;20375;-54
2023/06/13 07:26:47;;;;;;;7.75;4.25;;;16.30;23.50;;;;;;5072483;28;20103;-54
2023/06/13 07:29:12;;;;;;;8.30;3.63;;;16.30;1.00;;;;;;5074059;28;20374;-55
2023/06/13 07:31:38;;;;;;;6.85;3.75;;;16.40;21.70;;;;;;5074295;28;20036;-54
2023/06/13 07:34:04;;;;;;;6.18;3.10;;;16.50;43.10;;;;;;5073942;28;20063;-52
2023/06/13 07:36:29;;;;;;;8.63;3.80;;;16.60;1.00;;;;;;5074042;28;20031;-52
2023/06/13 07:38:55;;;;;;;17.55;3.47;;;16.70;1.00;;;;;;5074079;28;20117;-54
2023/06/13 07:41:21;;;;;;;6.35;3.25;;;16.90;1.00;;;;;;5073841;28;20025;-55
2023/06/13 07:43:49;;;;;;;18.48;3.35;;;16.90;1.00;;;;;;5074116;28;20012;-54
2023/06/13 07:46:15;;;;;;;9.80;3.50;;;16.90;1.00;;;;;;5073739;28;20016;-53
2023/06/13 07:48:41;;;;;;;4.88;3.38;;;16.90;1.00;;;;;;5073989;28;20036;-53
2023/06/13 07:51:06;;;;;;;6.00;2.92;;;17.00;1.00;;;;;;5073553;28;20028;-53
2023/06/13 07:53:32;;;;;;;7.07;3.15;;;17.10;1.00;;;;;;5073909;28;20356;-54
2023/06/13 07:55:58;;;;;;;5.45;3.03;;;17.10;1.00;;;;;;5072388;28;20032;-53
2023/06/13 07:58:24;;;;;;;6.97;3.20;;;17.20;1.00;;;;;;5073485;28;20048;-53
2023/06/13 08:00:50;;;;;;;3.83;3.10;;;17.40;1.00;;;;;;5073590;28;20463;-55
2023/06/13 08:03:15;;;;;;;8.20;3.22;;;17.50;1.00;;;;;;5073539;28;20367;-54
2023/06/13 08:05:41;;;;;;;4.72;3.30;;;17.60;1.00;;;;;;5073452;28;20039;-54
2023/06/13 08:08:07;;;;;;;2.90;2.60;;;17.70;1.00;;;;;;5073322;28;20036;-56
2023/06/13 08:10:32;;;;;;;10.95;3.85;;;17.70;1.00;;;;;;5073479;28;20024;-52
2023/06/13 08:12:59;;;;;;;9.52;3.20;;;17.60;1.00;;;;;;5072439;28;20055;-52
2023/06/13 08:15:25;;;;;;;6.47;3.42;;;17.60;1.00;;;;;;5071268;28;20028;-53
2023/06/13 08:17:52;;;;;;;12.52;3.30;;;17.70;1.00;;;;;;5072268;28;20035;-56
2023/06/13 08:20:18;;;;;;;6.60;3.67;;;17.80;1.00;;;;;;5072857;28;20029;-56
2023/06/13 08:22:43;;;;;;;5.82;3.00;;;18.10;1.00;;;;;;5072157;28;20570;-56
2023/06/13 08:25:09;;;;;;;8.82;3.22;;;18.40;1.00;;;;;;5072192;28;20025;-56
2023/06/13 08:27:36;;;;;;;5.55;3.88;;;18.50;1.00;;;;;;5072808;28;20032;-54
2023/06/13 08:30:06;;;;;;;6.25;2.95;;;18.60;99.90;;;;;;5073059;28;20036;-54
2023/06/13 08:32:32;;;;;;;3.00;2.70;;;18.50;99.90;;;;;;5071738;28;20035;-53
2023/06/13 08:34:59;;;;;;;11.55;3.78;;;18.50;99.90;;;;;;5072934;28;20020;-55
2023/06/13 08:37:26;;;;;;;9.90;3.22;;;18.60;99.90;;;;;;5071570;28;20132;-53
2023/06/13 08:39:51;;;;;;;6.68;3.15;;;18.70;99.90;;;;;;5073022;28;20024;-56
2023/06/13 08:42:18;;;;;;;6.72;3.53;;;18.80;99.90;;;;;;5072827;28;20423;-55
2023/06/13 08:44:44;;;;;;;7.03;3.50;;;18.70;99.90;;;;;;5072774;28;20032;-56
2023/06/13 08:47:11;;;;;;;6.50;3.35;;;18.90;99.90;;;;;;5071299;28;20024;-52
2023/06/13 08:49:37;;;;;;;7.07;3.20;;;18.80;99.90;;;;;;5072650;28;20059;-55
2023/06/13 08:52:05;;;;;;;8.07;3.38;;;18.90;99.90;;;;;;5072659;28;20021;-54
2023/06/13 08:54:34;;;;;;;7.32;3.22;;;18.80;99.90;;;;;;5072471;28;20025;-57
2023/06/13 08:57:04;;;;;;;8.20;2.90;;;19.20;99.90;;;;;;5072256;28;20043;-56
2023/06/13 08:59:34;;;;;;;12.10;3.35;;;19.30;99.90;;;;;;5072396;28;20750;-56
2023/06/13 09:02:01;;;;;;;6.88;3.53;;;19.20;99.90;;;;;;5072181;28;20055;-55
2023/06/13 09:04:27;;;;;;;5.20;2.90;;;19.40;99.90;;;;;;5072312;28;20104;-54
2023/06/13 09:07:00;;;;;;;10.30;2.80;;;19.70;99.90;;;;;;5072324;28;20078;-54
2023/06/13 09:09:27;;;;;;;16.85;2.97;;;19.80;99.90;;;;;;5072244;28;20028;-56
2023/06/13 09:11:53;;;;;;;4.57;2.63;;;19.70;99.90;;;;;;5072242;28;20025;-52
2023/06/13 09:14:20;;;;;;;5.47;3.55;;;19.80;99.90;;;;;;5072001;28;20025;-54
2023/06/13 09:16:52;;;;;;;7.00;2.67;;;19.80;99.90;;;;;;5071971;28;20023;-51
2023/06/13 09:19:18;;;;;;;3.77;3.10;;;19.80;99.90;;;;;;5071839;28;20368;-53
2023/06/13 09:21:44;;;;;;;9.65;3.00;;;19.90;99.90;;;;;;5072266;28;20016;-56
2023/06/13 09:24:12;;;;;;;7.50;3.08;;;19.70;99.90;;;;;;5071376;28;20025;-53
2023/06/13 09:26:40;;;;;;;8.85;2.92;;;20.00;99.90;;;;;;5072137;28;20031;-52
2023/06/13 09:29:07;;;;;;;7.30;3.45;;;20.10;99.90;;;;;;5071721;28;20020;-55
2023/06/13 09:31:37;;;;;;;4.63;2.97;;;20.30;99.90;;;;;;5072141;28;20036;-54
2023/06/13 09:34:03;;;;;;;4.45;2.65;;;20.50;99.90;;;;;;5071784;28;20021;-55
2023/06/13 09:36:29;;;;;;;4.75;2.63;;;20.60;99.90;;;;;;5071867;28;20092;-55
2023/06/13 09:38:55;;;;;;;8.75;2.85;;;20.60;99.90;;;;;;5071897;28;20141;-56
2023/06/13 09:41:21;;;;;;;6.28;2.42;;;20.70;99.90;;;;;;5071516;28;20028;-56
2023/06/13 09:43:50;;;;;;;6.72;2.22;;;20.80;99.90;;;;;;5071790;28;20032;-56
2023/06/13 09:46:19;;;;;;;5.63;2.65;;;20.70;99.90;;;;;;5071574;28;20077;-55
2023/06/13 09:48:45;;;;;;;9.30;2.80;;;20.60;99.90;;;;;;5071748;28;20020;-55
2023/06/13 09:51:11;;;;;;;10.68;2.70;;;20.60;99.90;;;;;;5071560;28;20071;-53
2023/06/13 09:53:37;;;;;;;7.50;2.65;;;20.80;99.90;;;;;;5071651;28;20166;-52
2023/06/13 09:56:06;;;;;;;7.85;2.63;;;20.90;99.90;;;;;;5071397;28;20016;-53
2023/06/13 09:58:35;;;;;;;10.77;2.60;;;21.10;99.90;;;;;;5071435;28;20480;-55
2023/06/13 10:01:03;;;;;;;7.43;2.67;;;21.30;99.90;;;;;;5071589;28;20025;-55
2023/06/13 10:03:30;;;;;;;6.93;2.63;;;21.30;99.90;;;;;;5071585;28;20032;-55
2023/06/13 10:06:00;;;;;;;11.50;3.47;;;21.20;99.90;;;;;;5071501;28;20017;-55
2023/06/13 10:08:26;;;;;;;5.80;3.03;;;21.20;99.90;;;;;;5071682;28;20166;-53
2023/06/13 10:10:54;;;;;;;9.95;2.92;;;21.50;99.90;;;;;;5071475;28;20025;-55
2023/06/13 10:13:29;;;;;;;8.82;3.30;;;21.40;99.90;;;;;;5071073;28;20032;-55
2023/06/13 10:15:58;;;;;;;9.98;2.70;;;21.50;99.90;;;;;;5071497;28;20105;-52
2023/06/13 10:18:37;;;;;;;4.32;3.00;;;21.90;99.90;;;;;;5057219;28;20078;-54
2023/06/13 10:21:04;;;;;;;5.65;2.88;;;21.70;99.90;;;;;;5040302;28;20027;-54
2023/06/13 10:23:33;;;;;;;3.65;2.55;;;22.10;99.90;;;;;;5040137;28;20411;-53
2023/06/13 10:26:06;;;;;;;3.97;2.33;;;22.20;99.90;;;;;;5039221;28;20120;-57
2023/06/13 10:28:57;;;;;;;4.85;2.58;;;22.50;99.90;;;;;;5037922;28;20854;-56
2023/06/13 10:31:45;;;;;;;8.95;2.97;;;22.40;99.90;;;;;;5041647;28;20381;-57
2023/06/13 10:34:42;;;;;;;14.82;3.08;;;22.30;99.90;;;;;;5040809;28;20065;-53
2023/06/13 10:37:24;;;;;;;9.07;2.67;;;22.60;99.90;;;;;;5044602;28;20737;-56
2023/06/13 10:40:11;;;;;;;5.00;3.17;;;22.60;99.90;;;;;;5044637;28;20132;-56
2023/06/13 10:42:44;;;;;;;7.80;3.33;;;22.80;99.90;;;;;;5044391;28;20032;-55
2023/06/13 10:45:21;;;;;;;10.13;2.92;;;23.10;99.90;;;;;;5044379;28;20036;-56
2023/06/13 10:47:47;;;;;;;6.38;2.25;;;23.10;99.90;;;;;;5044160;28;20037;-56
2023/06/13 10:50:16;;;;;;;6.93;2.67;;;23.40;99.90;;;;;;5043915;28;20017;-54
2023/06/13 10:52:49;;;;;;;7.25;2.30;;;23.30;99.90;;;;;;5044257;28;20025;-55
2023/06/13 10:55:26;;;;;;;10.23;2.25;;;23.40;99.90;;;;;;5042994;28;20031;-54
2023/06/13 10:57:53;;;;;;;3.85;2.53;;;23.50;99.90;;;;;;5042612;28;20045;-57
2023/06/13 11:00:30;;;;;;;4.15;2.53;;;23.40;99.90;;;;;;5044096;28;20103;-56
2023/06/13 11:03:10;;;;;;;9.63;2.97;;;23.60;99.90;;;;;;5042038;28;20695;-56
2023/06/13 11:05:45;;;;;;;2.72;2.35;;;23.60;99.90;;;;;;5043450;28;20431;-54
2023/06/13 11:08:19;;;;;;;4.70;2.65;;;23.60;99.90;;;;;;5043966;28;20031;-55
2023/06/13 11:10:46;;;;;;;4.25;2.40;;;23.60;99.90;;;;;;5043705;28;20090;-56
2023/06/13 11:13:16;;;;;;;4.40;2.80;;;23.70;99.90;;;;;;5043442;28;20416;-53
2023/06/13 11:15:43;;;;;;;9.93;2.45;;;23.80;99.90;;;;;;5043445;28;20041;-56
2023/06/13 11:18:08;;;;;;;3.30;2.33;;;23.90;99.90;;;;;;5053166;28;20116;-56
2023/06/13 11:20:48;;;;;;;5.00;2.30;;;24.00;99.90;;;;;;5054150;28;20113;-57
2023/06/13 11:23:15;;;;;;;7.70;2.65;;;24.30;99.90;;;;;;5054178;28;20025;-56
2023/06/13 11:25:42;;;;;;;6.55;2.85;;;23.90;99.90;;;;;;5052941;28;20388;-57
2023/06/13 11:28:08;;;;;;;10.07;2.85;;;23.80;99.90;;;;;;5054027;28;20021;-56
2023/06/13 11:30:34;;;;;;;5.05;2.70;;;24.10;99.90;;;;;;5054247;28;20427;-57
2023/06/13 11:33:00;;;;;;;7.78;6.07;;;24.10;99.90;;;;;;5054206;28;20060;-56
2023/06/13 11:35:28;;;;;;;10.30;2.88;;;24.40;99.90;;;;;;5054165;28;20108;-57
2023/06/13 11:37:58;;;;;;;3.63;2.92;;;24.70;99.90;;;;;;5053778;28;20060;-56
2023/06/13 11:40:39;;;;;;;12.93;2.90;;;24.80;99.90;;;;;;5053859;28;20085;-57
2023/06/13 11:43:05;;;;;;;3.92;2.40;;;24.80;99.90;;;;;;5053785;28;20032;-55
2023/06/13 11:45:31;;;;;;;7.55;2.38;;;24.70;99.90;;;;;;5054034;28;20084;-57
2023/06/13 11:48:00;;;;;;;14.60;2.78;;;25.00;99.90;;;;;;5053412;28;20112;-56
2023/06/13 11:50:26;;;;;;;5.65;2.58;;;25.20;99.90;;;;;;5053850;28;20033;-54
2023/06/13 11:53:09;;;;;;;3.92;2.08;;;25.00;99.90;;;;;;5053816;28;20063;-56
2023/06/13 11:55:35;;;;;;;11.05;2.97;;;25.00;99.90;;;;;;5053770;28;20464;-58
2023/06/13 11:58:02;;;;;;;4.20;2.08;;;25.10;99.90;;;;;;5053307;28;20131;-57
2023/06/13 12:00:28;;;;;;;3.95;2.33;;;25.40;99.90;;;;;;5053739;28;20108;-56
2023/06/13 12:02:58;;;;;;;4.38;2.42;;;25.10;99.90;;;;;;5053686;28;20025;-57
2023/06/13 12:05:24;;;;;;;4.43;2.40;;;25.30;99.90;;;;;;5053390;28;20112;-57
2023/06/13 12:07:50;;;;;;;7.05;2.70;;;25.60;99.90;;;;;;5053619;28;20021;-55
2023/06/13 12:10:19;;;;;;;11.50;2.83;;;25.60;99.90;;;;;;5053321;28;20021;-58
2023/06/13 12:12:57;;;;;;;8.88;2.35;;;26.00;99.90;;;;;;5053482;28;20025;-58
2023/06/13 12:15:24;;;;;;;4.35;2.22;;;26.30;99.90;;;;;;5053366;28;20025;-58
2023/06/13 12:17:59;;;;;;;5.07;2.13;;;26.30;99.90;;;;;;5053355;28;20434;-58
2023/06/13 12:20:25;;;;;;;10.27;2.45;;;26.80;99.90;;;;;;5053294;28;20069;-58
2023/06/13 12:22:58;;;;;;;5.63;2.55;;;27.10;99.90;;;;;;5053270;28;20024;-58
2023/06/13 12:25:30;;;;;;;9.05;2.30;;;27.50;99.90;;;;;;5053174;28;20039;-58
2023/06/13 12:27:57;;;;;;;5.20;2.55;;;28.10;99.90;;;;;;5053306;28;20043;-57
2023/06/13 12:30:23;;;;;;;6.22;2.28;;;28.40;99.90;;;;;;5052910;28;20504;-58
2023/06/13 12:32:50;;;;;;;5.43;2.20;;;28.70;99.90;;;;;;5053167;28;20084;-57
2023/06/13 12:35:19;;;;;;;5.35;2.17;;;29.10;99.90;;;;;;5052951;28;20025;-58
2023/06/13 12:37:54;;;;;;;5.18;1.98;;;29.00;99.90;;;;;;5053008;28;20031;-58
2023/06/13 12:40:29;;;;;;;4.07;2.13;;;29.00;99.90;;;;;;5052799;28;20121;-57
2023/06/13 12:42:56;;;;;;;5.13;2.42;;;29.40;99.90;;;;;;5052832;28;20056;-57
2023/06/13 12:45:22;;;;;;;4.30;2.03;;;29.50;99.90;;;;;;5052802;28;20029;-58
2023/06/13 12:47:47;;;;;;;7.70;2.22;;;29.60;99.90;;;;;;5052840;28;20078;-58
2023/06/13 12:50:13;;;;;;;4.68;2.40;;;29.70;99.90;;;;;;5051338;28;20017;-58
2023/06/13 12:52:39;;;;;;;7.90;2.50;;;30.60;99.90;;;;;;5051467;28;20385;-59